sensor_id;sensor_type;location;lat;lon;timestamp;pressure;altitude;pressure_sealevel;temperature;humidity
83424;BME280;73355;49.044;8.686;2024-01-10T00:01:31;100609.03;;;-1.88;52.05
83424;BME280;73355;49.044;8.686;2024-01-10T00:03:56;100609.59;;;-1.91;52.38
83424;BME280;73355;49.044;8.686;2024-01-10T00:06:22;100598.94;;;-1.91;52.21
83424;BME280;73355;49.044;8.686;2024-01-10T00:08:48;100600.53;;;-1.90;52.51
83424;BME280;73355;49.044;8.686;2024-01-10T00:11:14;100600.22;;;-1.89;52.63
83424;BME280;73355;49.044;8.686;2024-01-10T00:13:39;100597.56;;;-1.89;52.93
83424;BME280;73355;49.044;8.686;2024-01-10T00:16:05;100588.94;;;-1.86;53.36
83424;BME280;73355;49.044;8.686;2024-01-10T00:18:30;100585.19;;;-1.85;52.63
83424;BME280;73355;49.044;8.686;2024-01-10T00:20:56;100590.53;;;-1.85;52.96
83424;BME280;73355;49.044;8.686;2024-01-10T00:23:22;100587.69;;;-1.88;53.17
83424;BME280;73355;49.044;8.686;2024-01-10T00:25:48;100588.44;;;-1.88;53.21
83424;BME280;73355;49.044;8.686;2024-01-10T00:28:14;100576.69;;;-1.87;53.16
83424;BME280;73355;49.044;8.686;2024-01-10T00:30:42;100583.09;;;-1.88;52.95
83424;BME280;73355;49.044;8.686;2024-01-10T00:33:07;100585.31;;;-1.90;52.81
83424;BME280;73355;49.044;8.686;2024-01-10T00:35:32;100582.63;;;-1.90;53.19
83424;BME280;73355;49.044;8.686;2024-01-10T00:37:58;100579.47;;;-1.92;52.75
83424;BME280;73355;49.044;8.686;2024-01-10T00:40:23;100582.94;;;-1.91;53.04
83424;BME280;73355;49.044;8.686;2024-01-10T00:42:49;100574.44;;;-1.93;53.17
83424;BME280;73355;49.044;8.686;2024-01-10T00:45:15;100576.13;;;-1.97;52.75
83424;BME280;73355;49.044;8.686;2024-01-10T00:47:40;100584.41;;;-1.99;52.74
83424;BME280;73355;49.044;8.686;2024-01-10T00:50:06;100579.88;;;-1.98;53.20
83424;BME280;73355;49.044;8.686;2024-01-10T00:52:31;100583.03;;;-1.96;53.29
83424;BME280;73355;49.044;8.686;2024-01-10T00:54:57;100585.41;;;-1.95;53.17
83424;BME280;73355;49.044;8.686;2024-01-10T00:57:22;100588.88;;;-1.94;52.91
83424;BME280;73355;49.044;8.686;2024-01-10T00:59:47;100584.34;;;-1.94;52.62
83424;BME280;73355;49.044;8.686;2024-01-10T01:02:13;100582.13;;;-1.92;52.79
83424;BME280;73355;49.044;8.686;2024-01-10T01:04:38;100588.25;;;-1.91;52.10
83424;BME280;73355;49.044;8.686;2024-01-10T01:07:04;100587.47;;;-1.92;52.37
83424;BME280;73355;49.044;8.686;2024-01-10T01:09:29;100588.38;;;-1.96;52.90
83424;BME280;73355;49.044;8.686;2024-01-10T01:11:54;100586.22;;;-1.94;52.81
83424;BME280;73355;49.044;8.686;2024-01-10T01:14:20;100588.25;;;-1.91;52.84
83424;BME280;73355;49.044;8.686;2024-01-10T01:16:45;100590.94;;;-1.91;52.93
83424;BME280;73355;49.044;8.686;2024-01-10T01:19:11;100592.34;;;-1.94;52.52
83424;BME280;73355;49.044;8.686;2024-01-10T01:21:36;100585.09;;;-1.93;52.58
83424;BME280;73355;49.044;8.686;2024-01-10T01:24:01;100592.03;;;-1.92;52.93
83424;BME280;73355;49.044;8.686;2024-01-10T01:26:27;100591.72;;;-1.91;52.85
83424;BME280;73355;49.044;8.686;2024-01-10T01:28:52;100589.56;;;-1.89;52.43
83424;BME280;73355;49.044;8.686;2024-01-10T01:31:17;100579.97;;;-1.90;52.73
83424;BME280;73355;49.044;8.686;2024-01-10T01:33:43;100591.13;;;-1.88;53.02
83424;BME280;73355;49.044;8.686;2024-01-10T01:36:08;100587.69;;;-1.88;52.85
83424;BME280;73355;49.044;8.686;2024-01-10T01:38:35;100586.78;;;-1.97;52.82
83424;BME280;73355;49.044;8.686;2024-01-10T01:41:00;100587.41;;;-2.00;52.58
83424;BME280;73355;49.044;8.686;2024-01-10T01:43:26;100589.16;;;-1.96;52.39
83424;BME280;73355;49.044;8.686;2024-01-10T01:45:53;100576.34;;;-1.94;52.49
83424;BME280;73355;49.044;8.686;2024-01-10T01:48:19;100582.13;;;-1.92;52.50
83424;BME280;73355;49.044;8.686;2024-01-10T01:50:46;100576.63;;;-1.95;52.13
83424;BME280;73355;49.044;8.686;2024-01-10T01:53:15;100575.66;;;-1.99;52.70
83424;BME280;73355;49.044;8.686;2024-01-10T01:55:43;100572.97;;;-1.99;52.60
83424;BME280;73355;49.044;8.686;2024-01-10T01:58:10;100581.75;;;-1.99;52.85
83424;BME280;73355;49.044;8.686;2024-01-10T02:00:35;100565.44;;;-1.97;52.67
83424;BME280;73355;49.044;8.686;2024-01-10T02:03:02;100576.41;;;-1.99;52.84
83424;BME280;73355;49.044;8.686;2024-01-10T02:05:28;100570.91;;;-2.02;52.66
83424;BME280;73355;49.044;8.686;2024-01-10T02:07:53;100579.41;;;-2.00;52.63
83424;BME280;73355;49.044;8.686;2024-01-10T02:10:20;100570.72;;;-2.06;52.23
83424;BME280;73355;49.044;8.686;2024-01-10T02:12:46;100567.03;;;-2.10;52.99
83424;BME280;73355;49.044;8.686;2024-01-10T02:15:12;100564.69;;;-2.12;52.46
83424;BME280;73355;49.044;8.686;2024-01-10T02:17:38;100563.59;;;-2.11;53.32
83424;BME280;73355;49.044;8.686;2024-01-10T02:20:09;100561.41;;;-2.09;52.74
83424;BME280;73355;49.044;8.686;2024-01-10T02:22:35;100563.00;;;-2.08;52.63
83424;BME280;73355;49.044;8.686;2024-01-10T02:25:00;100561.41;;;-2.09;53.03
83424;BME280;73355;49.044;8.686;2024-01-10T02:27:26;100557.66;;;-2.08;53.21
83424;BME280;73355;49.044;8.686;2024-01-10T02:29:53;100556.88;;;-2.08;53.08
83424;BME280;73355;49.044;8.686;2024-01-10T02:32:19;100548.59;;;-2.06;53.27
83424;BME280;73355;49.044;8.686;2024-01-10T02:34:44;100550.16;;;-2.05;52.84
83424;BME280;73355;49.044;8.686;2024-01-10T02:37:10;100547.50;;;-2.05;53.23
83424;BME280;73355;49.044;8.686;2024-01-10T02:39:35;100540.59;;;-2.06;53.03
83424;BME280;73355;49.044;8.686;2024-01-10T02:42:00;100547.50;;;-2.05;52.99
83424;BME280;73355;49.044;8.686;2024-01-10T02:44:26;100550.63;;;-2.03;53.08
83424;BME280;73355;49.044;8.686;2024-01-10T02:46:53;100543.44;;;-2.03;53.00
83424;BME280;73355;49.044;8.686;2024-01-10T02:49:18;100544.50;;;-2.04;52.77
83424;BME280;73355;49.044;8.686;2024-01-10T02:51:44;100551.13;;;-2.01;53.00
83424;BME280;73355;49.044;8.686;2024-01-10T02:54:09;100553.53;;;-2.00;53.00
83424;BME280;73355;49.044;8.686;2024-01-10T02:56:34;100536.72;;;-2.00;53.74
83424;BME280;73355;49.044;8.686;2024-01-10T02:59:00;100547.38;;;-2.00;52.87
83424;BME280;73355;49.044;8.686;2024-01-10T03:01:25;100540.59;;;-2.06;53.09
83424;BME280;73355;49.044;8.686;2024-01-10T03:03:51;100540.09;;;-2.09;53.09
83424;BME280;73355;49.044;8.686;2024-01-10T03:06:16;100549.38;;;-2.06;53.05
83424;BME280;73355;49.044;8.686;2024-01-10T03:08:41;100539.50;;;-2.05;52.91
83424;BME280;73355;49.044;8.686;2024-01-10T03:11:07;100542.94;;;-2.05;53.19
83424;BME280;73355;49.044;8.686;2024-01-10T03:13:32;100535.44;;;-2.03;53.25
83424;BME280;73355;49.044;8.686;2024-01-10T03:15:58;100531.97;;;-2.03;52.76
83424;BME280;73355;49.044;8.686;2024-01-10T03:18:24;100539.19;;;-2.04;53.08
83424;BME280;73355;49.044;8.686;2024-01-10T03:20:49;100531.19;;;-2.04;53.22
83424;BME280;73355;49.044;8.686;2024-01-10T03:23:14;100537.31;;;-2.03;53.57
83424;BME280;73355;49.044;8.686;2024-01-10T03:25:40;100533.06;;;-2.04;53.74
83424;BME280;73355;49.044;8.686;2024-01-10T03:28:05;100530.38;;;-2.04;53.69
83424;BME280;73355;49.044;8.686;2024-01-10T03:30:31;100534.94;;;-2.05;53.71
83424;BME280;73355;49.044;8.686;2024-01-10T03:32:56;100536.91;;;-2.11;53.05
83424;BME280;73355;49.044;8.686;2024-01-10T03:35:21;100523.09;;;-2.13;53.51
83424;BME280;73355;49.044;8.686;2024-01-10T03:37:47;100529.22;;;-2.12;53.60
83424;BME280;73355;49.044;8.686;2024-01-10T03:40:12;100528.16;;;-2.11;53.32
83424;BME280;73355;49.044;8.686;2024-01-10T03:42:38;100525.78;;;-2.13;53.60
83424;BME280;73355;49.044;8.686;2024-01-10T03:45:04;100530.03;;;-2.12;53.74
83424;BME280;73355;49.044;8.686;2024-01-10T03:47:29;100528.63;;;-2.09;54.09
83424;BME280;73355;49.044;8.686;2024-01-10T03:49:55;100530.19;;;-2.08;53.76
83424;BME280;73355;49.044;8.686;2024-01-10T03:52:21;100531.28;;;-2.09;54.28
83424;BME280;73355;49.044;8.686;2024-01-10T03:54:46;100535.53;;;-2.08;53.79
83424;BME280;73355;49.044;8.686;2024-01-10T03:57:12;100539.97;;;-2.03;54.07
83424;BME280;73355;49.044;8.686;2024-01-10T03:59:37;100531.38;;;-2.00;54.25
83424;BME280;73355;49.044;8.686;2024-01-10T04:02:04;100539.84;;;-1.98;54.31
83424;BME280;73355;49.044;8.686;2024-01-10T04:04:30;100535.94;;;-2.01;53.94
83424;BME280;73355;49.044;8.686;2024-01-10T04:06:55;100534.16;;;-2.05;54.11
83424;BME280;73355;49.044;8.686;2024-01-10T04:09:21;100535.13;;;-2.01;53.64
83424;BME280;73355;49.044;8.686;2024-01-10T04:11:46;100548.38;;;-1.96;54.32
83424;BME280;73355;49.044;8.686;2024-01-10T04:14:11;100542.72;;;-1.95;53.96
83424;BME280;73355;49.044;8.686;2024-01-10T04:16:37;100538.97;;;-1.94;54.50
83424;BME280;73355;49.044;8.686;2024-01-10T04:19:02;100547.97;;;-1.90;54.28
83424;BME280;73355;49.044;8.686;2024-01-10T04:21:28;100547.34;;;-1.87;53.97
83424;BME280;73355;49.044;8.686;2024-01-10T04:23:53;100549.22;;;-1.87;54.10
83424;BME280;73355;49.044;8.686;2024-01-10T04:26:18;100537.28;;;-1.90;54.48
83424;BME280;73355;49.044;8.686;2024-01-10T04:28:44;100544.22;;;-1.89;54.14
83424;BME280;73355;49.044;8.686;2024-01-10T04:31:09;100539.44;;;-1.92;54.15
83424;BME280;73355;49.044;8.686;2024-01-10T04:33:35;100544.00;;;-1.92;54.63
83424;BME280;73355;49.044;8.686;2024-01-10T04:36:00;100535.69;;;-1.91;54.10
83424;BME280;73355;49.044;8.686;2024-01-10T04:38:25;100535.53;;;-1.94;54.55
83424;BME280;73355;49.044;8.686;2024-01-10T04:40:52;100540.84;;;-1.94;54.07
83424;BME280;73355;49.044;8.686;2024-01-10T04:43:17;100538.47;;;-1.96;53.96
83424;BME280;73355;49.044;8.686;2024-01-10T04:45:42;100535.31;;;-1.98;54.64
83424;BME280;73355;49.044;8.686;2024-01-10T04:48:08;100537.50;;;-2.00;54.34
83424;BME280;73355;49.044;8.686;2024-01-10T04:50:34;100536.72;;;-2.00;54.47
83424;BME280;73355;49.044;8.686;2024-01-10T04:53:00;100534.34;;;-2.02;54.29
83424;BME280;73355;49.044;8.686;2024-01-10T04:55:25;100538.59;;;-2.01;54.75
83424;BME280;73355;49.044;8.686;2024-01-10T04:57:50;100537.19;;;-1.98;54.33
83424;BME280;73355;49.044;8.686;2024-01-10T05:00:16;100544.41;;;-1.99;54.09
83424;BME280;73355;49.044;8.686;2024-01-10T05:02:41;100537.97;;;-1.98;54.29
83424;BME280;73355;49.044;8.686;2024-01-10T05:05:07;100539.56;;;-1.97;54.63
83424;BME280;73355;49.044;8.686;2024-01-10T05:07:32;100541.16;;;-1.96;54.37
83424;BME280;73355;49.044;8.686;2024-01-10T05:09:58;100541.94;;;-1.95;54.05
83424;BME280;73355;49.044;8.686;2024-01-10T05:12:23;100540.25;;;-1.91;54.34
83424;BME280;73355;49.044;8.686;2024-01-10T05:14:49;100545.59;;;-1.91;54.02
83424;BME280;73355;49.044;8.686;2024-01-10T05:17:14;100540.75;;;-1.89;54.06
83424;BME280;73355;49.044;8.686;2024-01-10T05:19:39;100540.13;;;-1.86;54.67
83424;BME280;73355;49.044;8.686;2024-01-10T05:22:05;100545.19;;;-1.85;54.38
83424;BME280;73355;49.044;8.686;2024-01-10T05:24:31;100530.94;;;-1.80;54.47
83424;BME280;73355;49.044;8.686;2024-01-10T05:26:56;100534.88;;;-1.78;54.52
83424;BME280;73355;49.044;8.686;2024-01-10T05:29:22;100535.84;;;-1.74;54.26
83424;BME280;73355;49.044;8.686;2024-01-10T05:31:49;100531.91;;;-1.76;54.69
83424;BME280;73355;49.044;8.686;2024-01-10T05:34:14;100543.84;;;-1.74;53.94
83424;BME280;73355;49.044;8.686;2024-01-10T05:36:40;100538.22;;;-1.72;54.34
83424;BME280;73355;49.044;8.686;2024-01-10T05:39:05;100542.94;;;-1.69;54.58
83424;BME280;73355;49.044;8.686;2024-01-10T05:41:30;100543.16;;;-1.65;54.88
83424;BME280;73355;49.044;8.686;2024-01-10T05:43:56;100535.63;;;-1.63;54.67
83424;BME280;73355;49.044;8.686;2024-01-10T05:46:21;100546.00;;;-1.62;54.87
83424;BME280;73355;49.044;8.686;2024-01-10T05:48:47;100537.38;;;-1.59;54.68
83424;BME280;73355;49.044;8.686;2024-01-10T05:51:13;100541.03;;;-1.55;54.36
83424;BME280;73355;49.044;8.686;2024-01-10T05:53:39;100531.94;;;-1.54;53.91
83424;BME280;73355;49.044;8.686;2024-01-10T05:56:06;100536.97;;;-1.52;53.82
83424;BME280;73355;49.044;8.686;2024-01-10T05:58:32;100536.16;;;-1.53;54.46
83424;BME280;73355;49.044;8.686;2024-01-10T06:00:57;100542.63;;;-1.54;54.74
83424;BME280;73355;49.044;8.686;2024-01-10T06:03:22;100542.41;;;-1.57;54.51
83424;BME280;73355;49.044;8.686;2024-01-10T06:05:50;100544.28;;;-1.58;54.64
83424;BME280;73355;49.044;8.686;2024-01-10T06:08:15;100545.09;;;-1.57;54.63
83424;BME280;73355;49.044;8.686;2024-01-10T06:10:41;100546.66;;;-1.56;54.96
83424;BME280;73355;49.044;8.686;2024-01-10T06:13:09;100549.34;;;-1.56;54.41
83424;BME280;73355;49.044;8.686;2024-01-10T06:15:34;100541.63;;;-1.58;54.46
83424;BME280;73355;49.044;8.686;2024-01-10T06:18:00;100538.16;;;-1.58;53.99
83424;BME280;73355;49.044;8.686;2024-01-10T06:20:25;100542.41;;;-1.57;54.20
83424;BME280;73355;49.044;8.686;2024-01-10T06:22:50;100542.72;;;-1.59;54.55
83424;BME280;73355;49.044;8.686;2024-01-10T06:25:16;100541.44;;;-1.61;54.30
83424;BME280;73355;49.044;8.686;2024-01-10T06:27:41;100529.97;;;-1.62;54.92
83424;BME280;73355;49.044;8.686;2024-01-10T06:30:07;100533.75;;;-1.63;55.13
83424;BME280;73355;49.044;8.686;2024-01-10T06:32:33;100536.03;;;-1.70;55.48
83424;BME280;73355;49.044;8.686;2024-01-10T06:34:58;100536.66;;;-1.73;55.09
83424;BME280;73355;49.044;8.686;2024-01-10T06:37:25;100546.03;;;-1.76;55.30
83424;BME280;73355;49.044;8.686;2024-01-10T06:39:51;100550.56;;;-1.76;55.18
83424;BME280;73355;49.044;8.686;2024-01-10T06:42:16;100548.69;;;-1.76;55.31
83424;BME280;73355;49.044;8.686;2024-01-10T06:44:42;100547.63;;;-1.75;54.71
83424;BME280;73355;49.044;8.686;2024-01-10T06:47:07;100548.91;;;-1.72;54.96
83424;BME280;73355;49.044;8.686;2024-01-10T06:49:32;100554.25;;;-1.72;55.29
83424;BME280;73355;49.044;8.686;2024-01-10T06:51:58;100544.66;;;-1.73;54.73
83424;BME280;73355;49.044;8.686;2024-01-10T06:54:25;100558.00;;;-1.73;55.29
83424;BME280;73355;49.044;8.686;2024-01-10T06:56:51;100545.91;;;-1.71;55.52
83424;BME280;73355;49.044;8.686;2024-01-10T06:59:16;100555.81;;;-1.71;55.28
83424;BME280;73355;49.044;8.686;2024-01-10T07:01:42;100552.38;;;-1.72;55.38
83424;BME280;73355;49.044;8.686;2024-01-10T07:04:07;100548.91;;;-1.72;55.33
83424;BME280;73355;49.044;8.686;2024-01-10T07:06:32;100548.91;;;-1.72;55.14
83424;BME280;73355;49.044;8.686;2024-01-10T07:08:58;100548.91;;;-1.72;55.37
83424;BME280;73355;49.044;8.686;2024-01-10T07:11:24;100551.06;;;-1.74;55.15
83424;BME280;73355;49.044;8.686;2024-01-10T07:13:49;100554.53;;;-1.74;55.84
83424;BME280;73355;49.044;8.686;2024-01-10T07:16:15;100568.38;;;-1.72;55.84
83424;BME280;73355;49.044;8.686;2024-01-10T07:18:41;100560.78;;;-1.78;55.57
83424;BME280;73355;49.044;8.686;2024-01-10T07:21:08;100565.13;;;-1.82;55.82
83424;BME280;73355;49.044;8.686;2024-01-10T07:23:34;100564.03;;;-1.81;55.83
83424;BME280;73355;49.044;8.686;2024-01-10T07:26:00;100568.28;;;-1.80;55.12
83424;BME280;73355;49.044;8.686;2024-01-10T07:28:25;100575.19;;;-1.79;55.71
83424;BME280;73355;49.044;8.686;2024-01-10T07:30:50;100577.88;;;-1.79;55.51
83424;BME280;73355;49.044;8.686;2024-01-10T07:33:16;100578.97;;;-1.80;55.74
83424;BME280;73355;49.044;8.686;2024-01-10T07:35:41;100587.16;;;-1.77;55.66
83424;BME280;73355;49.044;8.686;2024-01-10T07:38:07;100586.38;;;-1.77;55.70
83424;BME280;73355;49.044;8.686;2024-01-10T07:40:35;100590.59;;;-1.76;55.61
83424;BME280;73355;49.044;8.686;2024-01-10T07:43:01;100593.28;;;-1.76;55.25
83424;BME280;73355;49.044;8.686;2024-01-10T07:45:27;100599.91;;;-1.74;55.24
83424;BME280;73355;49.044;8.686;2024-01-10T07:47:52;100596.16;;;-1.73;55.21
83424;BME280;73355;49.044;8.686;2024-01-10T07:50:18;100599.78;;;-1.69;55.57
83424;BME280;73355;49.044;8.686;2024-01-10T07:52:45;100601.38;;;-1.68;55.42
83424;BME280;73355;49.044;8.686;2024-01-10T07:55:11;100592.06;;;-1.70;55.74
83424;BME280;73355;49.044;8.686;2024-01-10T07:57:39;100592.88;;;-1.70;55.58
83424;BME280;73355;49.044;8.686;2024-01-10T08:00:08;100595.53;;;-1.70;55.76
83424;BME280;73355;49.044;8.686;2024-01-10T08:02:38;100593.66;;;-1.69;55.58
83424;BME280;73355;49.044;8.686;2024-01-10T08:05:04;100599.00;;;-1.69;56.28
83424;BME280;73355;49.044;8.686;2024-01-10T08:07:31;100597.13;;;-1.69;55.50
83424;BME280;73355;49.044;8.686;2024-01-10T08:10:01;100594.44;;;-1.69;55.93
83424;BME280;73355;49.044;8.686;2024-01-10T08:12:26;100600.88;;;-1.70;55.48
83424;BME280;73355;49.044;8.686;2024-01-10T08:14:52;100604.63;;;-1.71;55.85
83424;BME280;73355;49.044;8.686;2024-01-10T08:17:17;100605.53;;;-1.75;55.49
83424;BME280;73355;49.044;8.686;2024-01-10T08:19:43;100608.19;;;-1.75;55.69
83424;BME280;73355;49.044;8.686;2024-01-10T08:22:08;100610.56;;;-1.74;55.26
83424;BME280;73355;49.044;8.686;2024-01-10T08:24:34;100610.47;;;-1.69;55.92
83424;BME280;73355;49.044;8.686;2024-01-10T08:26:59;100617.56;;;-1.64;55.95
83424;BME280;73355;49.044;8.686;2024-01-10T08:29:25;100612.91;;;-1.58;55.81
83424;BME280;73355;49.044;8.686;2024-01-10T08:31:56;100613.28;;;-1.51;55.36
83424;BME280;73355;49.044;8.686;2024-01-10T08:34:22;100615.06;;;-1.47;55.18
83424;BME280;73355;49.044;8.686;2024-01-10T08:36:48;100604.63;;;-1.35;55.38
83424;BME280;73355;49.044;8.686;2024-01-10T08:39:19;100606.19;;;-1.20;55.46
83424;BME280;73355;49.044;8.686;2024-01-10T08:41:47;100611.75;;;-1.08;55.21
83424;BME280;73355;49.044;8.686;2024-01-10T08:44:12;100608.06;;;-0.98;54.88
83424;BME280;73355;49.044;8.686;2024-01-10T08:46:38;100608.88;;;-0.89;54.53
83424;BME280;73355;49.044;8.686;2024-01-10T08:49:04;100612.41;;;-0.80;53.95
83424;BME280;73355;49.044;8.686;2024-01-10T08:51:29;100612.94;;;-0.69;54.32
83424;BME280;73355;49.044;8.686;2024-01-10T08:53:59;100623.38;;;-0.59;53.41
83424;BME280;73355;49.044;8.686;2024-01-10T08:56:25;100623.25;;;-0.54;53.34
83424;BME280;73355;49.044;8.686;2024-01-10T08:58:51;100617.47;;;-0.48;53.58
83424;BME280;73355;49.044;8.686;2024-01-10T09:01:16;100618.13;;;-0.42;53.37
83424;BME280;73355;49.044;8.686;2024-01-10T09:03:42;100621.59;;;-0.33;52.81
83424;BME280;73355;49.044;8.686;2024-01-10T09:06:07;100615.81;;;-0.26;52.94
83424;BME280;73355;49.044;8.686;2024-01-10T09:08:36;100617.41;;;-0.17;53.16
83424;BME280;73355;49.044;8.686;2024-01-10T09:11:02;100618.25;;;-0.08;52.50
83424;BME280;73355;49.044;8.686;2024-01-10T09:13:27;100621.28;;;-0.01;52.54
83424;BME280;73355;49.044;8.686;2024-01-10T09:15:53;100626.78;;;0.12;52.63
83424;BME280;73355;49.044;8.686;2024-01-10T09:18:18;100616.91;;;0.21;52.42
83424;BME280;73355;49.044;8.686;2024-01-10T09:20:44;100617.69;;;0.30;51.56
83424;BME280;73355;49.044;8.686;2024-01-10T09:23:09;100612.34;;;0.30;51.75
83424;BME280;73355;49.044;8.686;2024-01-10T09:25:36;100617.88;;;0.33;51.71
83424;BME280;73355;49.044;8.686;2024-01-10T09:28:01;100621.19;;;0.39;51.33
83424;BME280;73355;49.044;8.686;2024-01-10T09:30:27;100622.63;;;0.45;51.62
83424;BME280;73355;49.044;8.686;2024-01-10T09:32:52;100627.03;;;0.50;51.70
83424;BME280;73355;49.044;8.686;2024-01-10T09:35:17;100622.75;;;0.57;50.83
83424;BME280;73355;49.044;8.686;2024-01-10T09:37:43;100635.38;;;0.65;51.16
83424;BME280;73355;49.044;8.686;2024-01-10T09:40:13;100627.50;;;0.69;50.70
83424;BME280;73355;49.044;8.686;2024-01-10T09:42:39;100634.63;;;0.73;50.65
83424;BME280;73355;49.044;8.686;2024-01-10T09:45:05;100637.59;;;0.80;50.28
83424;BME280;73355;49.044;8.686;2024-01-10T09:47:32;100625.44;;;0.92;49.81
83424;BME280;73355;49.044;8.686;2024-01-10T09:49:58;100626.38;;;1.04;50.00
83424;BME280;73355;49.044;8.686;2024-01-10T09:52:26;100620.84;;;1.18;49.95
83424;BME280;73355;49.044;8.686;2024-01-10T09:54:54;100620.50;;;1.28;49.34
83424;BME280;73355;49.044;8.686;2024-01-10T09:57:22;100617.97;;;1.32;48.83
83424;BME280;73355;49.044;8.686;2024-01-10T09:59:49;100627.28;;;1.25;48.53
83424;BME280;73355;49.044;8.686;2024-01-10T10:02:17;100622.53;;;1.31;48.53
83424;BME280;73355;49.044;8.686;2024-01-10T10:07:24;100624.41;;;1.48;48.35
83424;BME280;73355;49.044;8.686;2024-01-10T10:09:50;100627.84;;;1.57;47.84
83424;BME280;73355;49.044;8.686;2024-01-10T10:12:18;100620.59;;;1.57;47.41
83424;BME280;73355;49.044;8.686;2024-01-10T10:14:43;100618.22;;;1.56;47.73
83424;BME280;73355;49.044;8.686;2024-01-10T10:17:17;100619.75;;;1.65;48.04
83424;BME280;73355;49.044;8.686;2024-01-10T10:19:43;100626.03;;;1.78;47.21
83424;BME280;73355;49.044;8.686;2024-01-10T10:22:10;100625.22;;;1.86;47.55
83424;BME280;73355;49.044;8.686;2024-01-10T10:24:35;100621.38;;;1.96;46.88
83424;BME280;73355;49.044;8.686;2024-01-10T10:27:01;100615.63;;;2.06;47.12
83424;BME280;73355;49.044;8.686;2024-01-10T10:29:26;100614.94;;;2.18;47.08
83424;BME280;73355;49.044;8.686;2024-01-10T10:31:52;100618.22;;;2.23;46.72
83424;BME280;73355;49.044;8.686;2024-01-10T10:34:23;100618.38;;;2.27;46.97
83424;BME280;73355;49.044;8.686;2024-01-10T10:36:48;100620.72;;;2.28;47.00
83424;BME280;73355;49.044;8.686;2024-01-10T10:39:17;100617.06;;;2.33;46.95
83424;BME280;73355;49.044;8.686;2024-01-10T10:41:43;100615.41;;;2.40;46.71
83424;BME280;73355;49.044;8.686;2024-01-10T10:44:09;100613.78;;;2.48;46.77
83424;BME280;73355;49.044;8.686;2024-01-10T10:46:36;100610.00;;;2.49;46.49
83424;BME280;73355;49.044;8.686;2024-01-10T10:49:06;100604.47;;;2.45;46.43
83424;BME280;73355;49.044;8.686;2024-01-10T10:51:36;100613.31;;;2.46;46.30
83424;BME280;73355;49.044;8.686;2024-01-10T10:54:03;100617.06;;;2.54;46.26
83424;BME280;73355;49.044;8.686;2024-01-10T10:56:30;100605.81;;;2.60;46.08
83424;BME280;73355;49.044;8.686;2024-01-10T10:58:56;100609.34;;;2.73;46.07
83424;BME280;73355;49.044;8.686;2024-01-10T11:01:23;100613.78;;;2.89;45.80
83424;BME280;73355;49.044;8.686;2024-01-10T11:03:49;100606.22;;;3.04;45.25
83424;BME280;73355;49.044;8.686;2024-01-10T11:06:16;100606.47;;;3.11;45.06
83424;BME280;73355;49.044;8.686;2024-01-10T11:08:45;100608.88;;;3.24;44.97
83424;BME280;73355;49.044;8.686;2024-01-10T11:19:51;100609.75;;;3.86;43.73
83424;BME280;73355;49.044;8.686;2024-01-10T11:22:46;100603.56;;;3.85;43.99
83424;BME280;73355;49.044;8.686;2024-01-10T11:25:16;100601.53;;;3.94;43.58
83424;BME280;73355;49.044;8.686;2024-01-10T11:27:43;100607.63;;;4.03;42.95
83424;BME280;73355;49.044;8.686;2024-01-10T11:30:10;100601.75;;;4.13;43.04
83424;BME280;73355;49.044;8.686;2024-01-10T11:32:37;100598.50;;;4.20;43.10
83424;BME280;73355;49.044;8.686;2024-01-10T11:35:11;100608.25;;;4.25;42.36
83424;BME280;73355;49.044;8.686;2024-01-10T11:37:44;100608.81;;;4.18;42.11
83424;BME280;73355;49.044;8.686;2024-01-10T11:40:11;100603.66;;;4.25;42.70
83424;BME280;73355;49.044;8.686;2024-01-10T11:42:44;100603.72;;;4.41;42.46
83424;BME280;73355;49.044;8.686;2024-01-10T11:47:56;100611.47;;;4.54;41.74
83424;BME280;73355;49.044;8.686;2024-01-10T11:50:23;100608.78;;;4.54;41.70
83424;BME280;73355;49.044;8.686;2024-01-10T11:52:52;100613.59;;;4.61;41.94
83424;BME280;73355;49.044;8.686;2024-01-10T11:55:52;100607.03;;;4.62;41.42
83424;BME280;73355;49.044;8.686;2024-01-10T11:58:17;100607.81;;;4.75;43.27
83424;BME280;73355;49.044;8.686;2024-01-10T12:00:43;100609.53;;;4.95;42.80
83424;BME280;73355;49.044;8.686;2024-01-10T12:03:11;100604.06;;;5.07;42.13
83424;BME280;73355;49.044;8.686;2024-01-10T12:05:36;100592.88;;;5.21;41.85
83424;BME280;73355;49.044;8.686;2024-01-10T12:08:06;100593.41;;;5.26;41.36
83424;BME280;73355;49.044;8.686;2024-01-10T12:10:31;100584.84;;;5.24;41.03
83424;BME280;73355;49.044;8.686;2024-01-10T12:13:01;100584.34;;;5.19;41.49
83424;BME280;73355;49.044;8.686;2024-01-10T12:15:27;100587.66;;;5.12;41.37
83424;BME280;73355;49.044;8.686;2024-01-10T12:17:52;100587.22;;;5.26;41.86
83424;BME280;73355;49.044;8.686;2024-01-10T12:20:18;100581.06;;;5.41;41.28
83424;BME280;73355;49.044;8.686;2024-01-10T12:22:43;100579.75;;;5.51;40.95
83424;BME280;73355;49.044;8.686;2024-01-10T12:25:09;100575.84;;;5.64;40.91
83424;BME280;73355;49.044;8.686;2024-01-10T12:27:35;100569.53;;;5.75;40.66
83424;BME280;73355;49.044;8.686;2024-01-10T12:30:00;100569.38;;;5.84;40.59
83424;BME280;73355;49.044;8.686;2024-01-10T12:32:28;100564.06;;;5.88;40.21
83424;BME280;73355;49.044;8.686;2024-01-10T12:35:03;100574.97;;;5.91;40.09
83424;BME280;73355;49.044;8.686;2024-01-10T12:37:29;100573.06;;;5.92;40.01
83424;BME280;73355;49.044;8.686;2024-01-10T12:39:55;100569.38;;;6.00;40.27
83424;BME280;73355;49.044;8.686;2024-01-10T12:42:21;100573.59;;;5.97;40.15
83424;BME280;73355;49.044;8.686;2024-01-10T12:44:47;100574.38;;;5.98;39.42
83424;BME280;73355;49.044;8.686;2024-01-10T12:47:19;100570.50;;;5.99;39.79
83424;BME280;73355;49.044;8.686;2024-01-10T12:49:46;100571.28;;;5.99;39.47
83424;BME280;73355;49.044;8.686;2024-01-10T12:52:12;100570.94;;;6.01;39.57
83424;BME280;73355;49.044;8.686;2024-01-10T12:54:38;100567.03;;;5.98;39.45
83424;BME280;73355;49.044;8.686;2024-01-10T12:57:04;100573.47;;;5.94;39.73
83424;BME280;73355;49.044;8.686;2024-01-10T12:59:29;100564.31;;;5.98;40.07
83424;BME280;73355;49.044;8.686;2024-01-10T13:01:54;100565.63;;;6.04;39.80